KLOT/LOT METAR and TAF weather

Enter ICAO airport designator
Station Type Date Time Source
KLOT METAR 2018/12/18 19:35 UTC NOAA

KLOT 181935Z AUTO 20008KT 10SM CLR 05/00 A3013 RMK AO2 T00521002


Station Type Date Time Source
KLOT Decoded METAR 2018/12/18 19:35 UTC NOAA

Chicago/Romeoville, Lewis University Airport, IL, United States (KLOT) 41-36-30N 088-05-39W
Dec 18, 2018 - 02:35 PM EST / 2018.12.18 1935 UTC
Wind: from the SSW (200 degrees) at 9 MPH (8 KT):0
Visibility: 10 mile(s):0
Sky conditions: clear
Temperature: 41.4 F (5.2 C)
Dew Point: 31.6 F (-0.2 C)
Relative Humidity: 68%
Pressure (altimeter): 30.13 in. Hg (1020 hPa)
ob: KLOT 181935Z AUTO 20008KT 10SM CLR 05/00 A3013 RMK AO2 T00521002
cycle: 19

Station Type Date Time Source
KLOT TAF UTC NOAA

Error!


Example: see airport list